createdAt,value
2018-05-14T00:00:50.087Z,4.80
2018-05-14T00:03:17.891Z,5.47
2018-05-14T00:05:45.495Z,5.07
2018-05-14T00:08:13.016Z,4.60
2018-05-14T00:10:40.535Z,4.80
2018-05-14T00:13:08.036Z,5.20
2018-05-14T00:15:36.328Z,4.87
2018-05-14T00:18:04.643Z,4.50
2018-05-14T00:20:32.251Z,4.60
2018-05-14T00:22:59.789Z,4.47
2018-05-14T00:25:27.327Z,4.73
2018-05-14T00:27:55.605Z,5.20
2018-05-14T00:30:23.095Z,5.03
2018-05-14T00:32:51.479Z,4.90
2018-05-14T00:35:19.741Z,5.87
2018-05-14T00:37:48.781Z,6.20
2018-05-14T00:40:17.033Z,5.20
2018-05-14T00:42:44.566Z,5.10
2018-05-14T00:45:12.069Z,5.40
2018-05-14T00:47:40.247Z,4.50
2018-05-14T00:50:07.855Z,5.30
2018-05-14T00:52:35.377Z,4.83
2018-05-14T00:55:14.897Z,5.57
2018-05-14T00:57:43.133Z,5.20
2018-05-14T01:00:10.669Z,4.63
2018-05-14T01:02:38.179Z,4.33
2018-05-14T01:05:05.686Z,4.67
2018-05-14T01:07:33.983Z,4.43
2018-05-14T01:10:02.369Z,5.20
2018-05-14T01:12:30.652Z,5.77
2018-05-14T01:14:58.933Z,5.17
2018-05-14T01:17:26.541Z,5.17
2018-05-14T01:19:54.098Z,5.73
2018-05-14T01:22:22.401Z,5.10
2018-05-14T01:24:55.540Z,4.90
2018-05-14T01:27:23.061Z,6.73
2018-05-14T01:29:50.655Z,5.60
2018-05-14T01:32:18.183Z,6.00
2018-05-14T01:34:46.465Z,5.80
2018-05-14T01:37:14.089Z,5.23
2018-05-14T01:39:42.387Z,5.67
2018-05-14T01:42:09.926Z,5.43
2018-05-14T01:44:38.300Z,4.90
2018-05-14T01:47:05.798Z,7.03
2018-05-14T01:49:33.349Z,6.37
2018-05-14T01:52:00.910Z,5.77
2018-05-14T01:54:28.611Z,5.23
2018-05-14T01:56:56.094Z,5.23
2018-05-14T01:59:23.616Z,5.63
2018-05-14T02:01:51.199Z,5.30
2018-05-14T02:04:19.483Z,5.50
2018-05-14T02:06:47.079Z,5.90
2018-05-14T02:09:14.630Z,4.90
2018-05-14T02:11:42.982Z,4.10
2018-05-14T02:14:10.725Z,5.93
2018-05-14T02:16:38.265Z,5.10
2018-05-14T02:19:06.525Z,4.67
2018-05-14T02:21:34.036Z,5.77
2018-05-14T02:24:02.292Z,5.77
2018-05-14T02:26:29.892Z,5.17
2018-05-14T02:28:58.252Z,6.07
2018-05-14T02:31:25.782Z,6.17
2018-05-14T02:33:53.403Z,5.20
2018-05-14T02:36:20.895Z,6.37
2018-05-14T02:38:48.460Z,5.60
2018-05-14T02:41:16.720Z,5.67
2018-05-14T02:43:44.329Z,5.50
2018-05-14T02:46:12.633Z,5.50
2018-05-14T02:48:40.156Z,5.37
2018-05-14T02:51:07.664Z,5.63
2018-05-14T02:53:36.055Z,6.20
2018-05-14T02:56:03.599Z,5.73
2018-05-14T02:58:31.117Z,5.50
2018-05-14T03:00:58.651Z,5.47
2018-05-14T03:03:26.247Z,5.40
2018-05-14T03:05:53.813Z,6.07
2018-05-14T03:08:22.077Z,5.60
2018-05-14T03:10:51.136Z,6.17
2018-05-14T03:13:18.635Z,5.60
2018-05-14T03:15:46.165Z,6.17
2018-05-14T03:18:13.646Z,6.30
2018-05-14T03:20:41.179Z,6.00
2018-05-14T03:23:09.415Z,5.40
2018-05-14T03:25:36.946Z,6.03
2018-05-14T03:28:04.442Z,6.40
2018-05-14T03:30:32.145Z,6.20
2018-05-14T03:32:59.635Z,6.00
2018-05-14T03:35:27.160Z,6.33
2018-05-14T03:37:54.679Z,6.00
2018-05-14T03:40:22.265Z,6.57
2018-05-14T03:42:50.534Z,6.10
2018-05-14T03:45:18.345Z,5.73
2018-05-14T03:47:45.839Z,5.70
2018-05-14T03:50:13.599Z,6.43
2018-05-14T03:52:41.088Z,6.13
2018-05-14T03:55:08.633Z,5.97
2018-05-14T03:57:36.219Z,5.63
2018-05-14T04:00:15.838Z,6.43
2018-05-14T04:02:56.013Z,5.17
2018-05-14T04:05:36.331Z,5.90
2018-05-14T04:08:03.855Z,6.67
2018-05-14T04:10:32.234Z,6.23
2018-05-14T04:13:00.620Z,6.83
2018-05-14T04:15:28.211Z,5.80
2018-05-14T04:17:56.516Z,6.63
2018-05-14T04:20:24.812Z,5.67
2018-05-14T04:22:52.540Z,6.40
2018-05-14T04:25:20.132Z,5.60
2018-05-14T04:27:48.641Z,6.17
2018-05-14T04:30:16.234Z,5.93
2018-05-14T04:32:43.800Z,7.83
2018-05-14T04:35:11.343Z,6.20
2018-05-14T04:37:38.904Z,6.40
2018-05-14T04:40:07.179Z,6.87
2018-05-14T04:42:35.199Z,6.37
2018-05-14T04:45:02.772Z,6.97
2018-05-14T04:47:30.340Z,6.70
2018-05-14T04:49:57.904Z,6.03
2018-05-14T04:52:26.276Z,7.10
2018-05-14T04:54:53.761Z,7.50
2018-05-14T04:57:22.019Z,6.90
2018-05-14T04:59:49.648Z,6.10
2018-05-14T05:02:17.217Z,10.10
2018-05-14T05:04:44.776Z,8.43
2018-05-14T05:07:12.256Z,7.77
2018-05-14T05:09:39.839Z,6.40
2018-05-14T05:12:07.368Z,7.53
2018-05-14T05:14:35.735Z,7.73
2018-05-14T05:17:03.259Z,8.00
2018-05-14T05:19:30.754Z,7.73
2018-05-14T05:21:58.465Z,7.20
2018-05-14T05:24:26.730Z,6.60
2018-05-14T05:26:54.257Z,6.93
2018-05-14T05:29:21.905Z,6.50
2018-05-14T05:31:50.428Z,7.60
2018-05-14T05:34:17.995Z,8.17
2018-05-14T05:36:45.507Z,6.70
2018-05-14T05:39:13.018Z,6.90
2018-05-14T05:41:41.434Z,6.83
2018-05-14T05:44:09.107Z,7.57
2018-05-14T05:46:36.619Z,7.07
2018-05-14T05:49:04.230Z,7.67
2018-05-14T05:51:31.876Z,7.40
2018-05-14T05:53:59.415Z,7.70
2018-05-14T05:56:26.903Z,7.60
2018-05-14T05:58:54.452Z,8.40
2018-05-14T06:01:22.026Z,7.70
2018-05-14T06:03:49.740Z,7.67
2018-05-14T06:06:17.555Z,7.40
2018-05-14T06:08:45.263Z,8.13
2018-05-14T06:11:12.796Z,7.37
2018-05-14T06:13:40.367Z,7.40
2018-05-14T06:16:07.922Z,7.60
2018-05-14T06:18:36.323Z,7.00
2018-05-14T06:21:03.822Z,7.70
2018-05-14T06:23:31.378Z,6.83
2018-05-14T06:25:59.158Z,6.77
2018-05-14T06:28:26.728Z,6.70
2018-05-14T06:30:54.329Z,7.43
2018-05-14T06:33:21.864Z,7.70
2018-05-14T06:35:49.485Z,8.10
2018-05-14T06:38:16.934Z,6.67
2018-05-14T06:40:44.615Z,6.77
2018-05-14T06:43:12.139Z,8.07
2018-05-14T06:45:40.421Z,8.07
2018-05-14T06:48:08.681Z,7.23
2018-05-14T06:50:36.229Z,7.30
2018-05-14T06:53:03.779Z,6.83
2018-05-14T06:55:31.316Z,7.00
2018-05-14T06:57:59.589Z,6.60
2018-05-14T07:00:27.105Z,7.53
2018-05-14T07:02:54.594Z,6.17
2018-05-14T07:05:22.140Z,6.47
2018-05-14T07:07:49.785Z,7.03
2018-05-14T07:10:18.035Z,6.80
2018-05-14T07:12:45.556Z,6.33
2018-05-14T07:15:13.957Z,6.80
2018-05-14T07:17:42.236Z,6.00
2018-05-14T07:20:10.494Z,6.73
2018-05-14T07:22:38.253Z,6.30
2018-05-14T07:25:05.767Z,6.97
2018-05-14T07:27:34.097Z,5.57
2018-05-14T07:30:01.611Z,6.10
2018-05-14T07:32:29.137Z,6.40
2018-05-14T07:34:56.637Z,6.60
2018-05-14T07:37:24.183Z,6.53
2018-05-14T07:39:51.851Z,6.90
2018-05-14T07:42:19.342Z,6.10
2018-05-14T07:44:46.876Z,6.63
2018-05-14T07:47:14.372Z,6.50
2018-05-14T07:49:42.029Z,5.90
2018-05-14T07:52:09.654Z,6.97
2018-05-14T07:54:37.138Z,6.93
2018-05-14T07:57:05.418Z,6.20
2018-05-14T07:59:32.975Z,5.93
2018-05-14T08:02:01.279Z,6.10
2018-05-14T08:04:28.872Z,6.17
2018-05-14T08:06:56.350Z,5.80
2018-05-14T08:09:24.138Z,7.07
2018-05-14T08:11:51.627Z,6.20
2018-05-14T08:14:19.220Z,6.40
2018-05-14T08:16:46.832Z,5.90
2018-05-14T08:19:15.217Z,6.50
2018-05-14T08:21:43.540Z,5.73
2018-05-14T08:24:11.064Z,6.00
2018-05-14T08:26:39.448Z,5.40
2018-05-14T08:29:07.038Z,6.00
2018-05-14T08:31:35.397Z,5.90
2018-05-14T08:34:02.913Z,5.83
2018-05-14T08:36:30.438Z,5.23
2018-05-14T08:38:58.199Z,5.70
2018-05-14T08:41:25.637Z,5.03
2018-05-14T08:43:53.167Z,4.70
2018-05-14T08:46:20.770Z,5.10
2018-05-14T08:48:48.259Z,4.73
2018-05-14T08:51:15.780Z,5.23
2018-05-14T08:53:43.384Z,5.50
2018-05-14T08:56:11.034Z,5.30
2018-05-14T08:58:38.552Z,4.77
2018-05-14T09:01:06.233Z,4.70
2018-05-14T09:03:33.671Z,5.27
2018-05-14T09:06:01.161Z,5.10
2018-05-14T09:08:28.740Z,4.80
2018-05-14T09:10:56.257Z,5.40
2018-05-14T09:13:24.575Z,5.60
2018-05-14T09:15:52.141Z,5.33
2018-05-14T09:18:19.680Z,4.47
2018-05-14T09:20:47.254Z,5.00
2018-05-14T09:23:14.929Z,4.40
2018-05-14T09:25:42.532Z,5.17
2018-05-14T09:28:10.819Z,5.17
2018-05-14T09:30:38.342Z,4.77
2018-05-14T09:33:05.872Z,5.10
2018-05-14T09:35:33.429Z,4.50
2018-05-14T09:38:00.991Z,4.20
2018-05-14T09:40:29.350Z,4.40
2018-05-14T09:42:56.857Z,4.30
2018-05-14T09:45:24.415Z,4.60
2018-05-14T09:47:51.910Z,4.17
2018-05-14T09:50:19.458Z,4.97
2018-05-14T09:52:47.827Z,4.27
2018-05-14T09:55:16.172Z,4.37
2018-05-14T09:57:46.489Z,4.47
2018-05-14T10:00:15.076Z,4.17
2018-05-14T10:02:43.795Z,4.27
2018-05-14T10:05:11.530Z,3.90
2018-05-14T10:07:39.509Z,4.03
2018-05-14T10:10:07.012Z,4.00
2018-05-14T10:12:34.628Z,4.00
2018-05-14T10:15:02.320Z,3.87
2018-05-14T10:17:30.584Z,4.00
2018-05-14T10:19:58.864Z,3.47
2018-05-14T10:22:27.911Z,3.60
2018-05-14T10:24:55.417Z,3.10
2018-05-14T10:27:22.907Z,3.70
2018-05-14T10:29:50.420Z,3.40
2018-05-14T10:32:17.943Z,3.37
2018-05-14T10:34:45.501Z,4.00
2018-05-14T10:37:12.999Z,3.03
2018-05-14T10:39:40.514Z,3.00
2018-05-14T10:42:08.195Z,2.97
2018-05-14T10:44:35.716Z,2.70
2018-05-14T10:47:03.310Z,2.73
2018-05-14T10:49:31.648Z,3.10
2018-05-14T10:51:59.137Z,2.80
2018-05-14T10:54:26.658Z,3.17
2018-05-14T10:56:54.182Z,2.67
2018-05-14T10:59:22.461Z,2.90
2018-05-14T11:01:49.997Z,3.20
2018-05-14T11:04:17.644Z,3.70
2018-05-14T11:06:45.921Z,3.10
2018-05-14T11:09:13.568Z,2.93
2018-05-14T11:11:41.152Z,2.87
2018-05-14T11:14:08.732Z,3.47
2018-05-14T11:16:37.787Z,3.13
2018-05-14T11:19:05.281Z,3.30
2018-05-14T11:21:32.810Z,3.63
2018-05-14T11:24:00.372Z,3.23
2018-05-14T11:26:28.857Z,3.07
2018-05-14T11:28:57.128Z,3.67
2018-05-14T11:31:24.619Z,3.43
2018-05-14T11:33:53.003Z,2.80
2018-05-14T11:36:21.413Z,2.97
2018-05-14T11:38:48.946Z,2.80
2018-05-14T11:41:16.428Z,3.00
2018-05-14T11:43:44.734Z,3.00
2018-05-14T11:46:12.981Z,2.87
2018-05-14T11:48:40.498Z,3.77
2018-05-14T11:51:09.124Z,3.27
2018-05-14T11:53:36.652Z,2.97
2018-05-14T11:56:04.955Z,3.50
2018-05-14T11:58:32.525Z,2.90
2018-05-14T12:01:00.040Z,3.17
2018-05-14T12:03:27.655Z,3.10
2018-05-14T12:05:55.959Z,2.87
2018-05-14T12:08:23.480Z,3.13
2018-05-14T12:10:51.000Z,3.00
2018-05-14T12:13:18.550Z,3.30
2018-05-14T12:15:46.800Z,3.17
2018-05-14T12:18:14.364Z,2.80
2018-05-14T12:20:41.877Z,2.67
2018-05-14T12:23:09.396Z,3.50
2018-05-14T12:25:36.953Z,3.40
2018-05-14T12:28:04.489Z,2.97
2018-05-14T12:30:32.790Z,3.20
2018-05-14T12:33:01.038Z,4.00
2018-05-14T12:35:28.573Z,2.87
2018-05-14T12:37:56.238Z,3.63
2018-05-14T12:40:23.914Z,3.20
2018-05-14T12:42:51.394Z,3.53
2018-05-14T12:45:18.987Z,3.20
2018-05-14T12:47:46.568Z,3.80
2018-05-14T12:50:14.060Z,3.40
2018-05-14T12:52:41.741Z,3.60
2018-05-14T12:55:10.012Z,3.67
2018-05-14T12:57:37.704Z,3.20
2018-05-14T13:00:05.201Z,3.83
2018-05-14T13:02:33.601Z,3.50
2018-05-14T13:05:01.144Z,3.50
2018-05-14T13:07:28.656Z,3.23
2018-05-14T13:09:56.308Z,3.33
2018-05-14T13:12:23.837Z,4.10
2018-05-14T13:14:51.375Z,3.53
2018-05-14T13:17:18.910Z,3.77
2018-05-14T13:19:47.238Z,3.90
2018-05-14T13:22:15.672Z,3.83
2018-05-14T13:24:43.264Z,3.67
2018-05-14T13:27:11.546Z,3.80
2018-05-14T13:29:39.079Z,4.07
2018-05-14T13:32:06.927Z,4.10
2018-05-14T13:34:35.158Z,4.00
2018-05-14T13:37:02.796Z,4.03
2018-05-14T13:39:30.336Z,4.37
2018-05-14T13:41:58.727Z,3.90
2018-05-14T13:44:27.055Z,4.00
2018-05-14T13:46:54.564Z,4.10
2018-05-14T13:49:22.143Z,3.70
2018-05-14T13:51:49.941Z,3.70
2018-05-14T13:54:18.191Z,4.10
2018-05-14T13:56:45.719Z,3.90
2018-05-14T13:59:13.256Z,4.17
2018-05-14T14:01:41.626Z,3.90
2018-05-14T14:04:10.657Z,3.77
2018-05-14T14:06:39.032Z,4.00
2018-05-14T14:09:06.744Z,4.30
2018-05-14T14:11:34.407Z,3.57
2018-05-14T14:14:01.989Z,3.63
2018-05-14T14:16:29.535Z,4.33
2018-05-14T14:18:57.849Z,4.40
2018-05-14T14:21:25.430Z,4.57
2018-05-14T14:23:52.950Z,4.20
2018-05-14T14:26:20.483Z,3.97
2018-05-14T14:28:48.025Z,4.00
2018-05-14T14:31:16.302Z,3.50
2018-05-14T14:33:44.560Z,4.50
2018-05-14T14:36:12.376Z,3.60
2018-05-14T14:38:40.553Z,3.47
2018-05-14T14:41:08.998Z,3.90
2018-05-14T14:43:36.524Z,3.33
2018-05-14T14:46:04.790Z,3.77
2018-05-14T14:48:32.470Z,3.60
2018-05-14T14:51:00.049Z,3.60
2018-05-14T14:53:28.437Z,3.90
2018-05-14T14:55:56.724Z,3.57
2018-05-14T14:58:24.219Z,3.83
2018-05-14T15:00:51.804Z,3.93
2018-05-14T15:03:19.292Z,3.97
2018-05-14T15:05:46.916Z,3.77
2018-05-14T15:08:15.297Z,3.80
2018-05-14T15:10:42.886Z,4.10
2018-05-14T15:13:10.462Z,4.07
2018-05-14T15:15:38.727Z,4.37
2018-05-14T15:18:06.226Z,4.10
2018-05-14T15:20:33.761Z,4.27
2018-05-14T15:23:01.781Z,3.90
2018-05-14T15:25:29.337Z,3.80
2018-05-14T15:27:57.641Z,3.90
2018-05-14T15:30:25.193Z,3.80
2018-05-14T15:32:52.757Z,4.10
2018-05-14T15:35:20.354Z,3.73
2018-05-14T15:37:47.883Z,4.10
2018-05-14T15:40:15.482Z,4.10
2018-05-14T15:42:43.852Z,3.90
2018-05-14T15:45:11.472Z,3.87
2018-05-14T15:47:39.136Z,4.00
2018-05-14T15:50:06.628Z,3.53
2018-05-14T15:52:34.149Z,4.37
2018-05-14T15:55:02.554Z,4.20
2018-05-14T15:57:30.178Z,4.07
2018-05-14T15:59:57.662Z,4.57
2018-05-14T16:02:25.400Z,3.87
2018-05-14T16:04:52.957Z,3.97
2018-05-14T16:07:20.514Z,4.97
2018-05-14T16:09:48.897Z,4.30
2018-05-14T16:12:17.161Z,4.17
2018-05-14T16:14:45.467Z,4.13
2018-05-14T16:17:13.042Z,4.20
2018-05-14T16:19:41.357Z,3.60
2018-05-14T16:22:09.818Z,3.60
2018-05-14T16:24:37.318Z,3.70
2018-05-14T16:27:05.603Z,4.00
2018-05-14T16:29:33.196Z,3.83
2018-05-14T16:32:00.723Z,4.27
2018-05-14T16:34:29.103Z,3.23
2018-05-14T16:36:57.368Z,3.60
2018-05-14T16:39:24.987Z,3.70
2018-05-14T16:41:53.793Z,4.03
2018-05-14T16:44:21.279Z,3.23
2018-05-14T16:46:48.774Z,3.60
2018-05-14T16:49:16.406Z,3.40
2018-05-14T16:51:44.853Z,3.80
2018-05-14T16:54:12.391Z,3.10
2018-05-14T16:56:40.044Z,3.43
2018-05-14T16:59:08.446Z,3.20
2018-05-14T17:01:36.922Z,3.67
2018-05-14T17:04:05.314Z,2.90
2018-05-14T17:06:32.752Z,3.30
2018-05-14T17:09:00.341Z,3.60
2018-05-14T17:11:28.765Z,3.20
2018-05-14T17:13:56.271Z,3.83
2018-05-14T17:16:23.829Z,3.63
2018-05-14T17:18:51.485Z,3.43
2018-05-14T17:21:19.031Z,3.37
2018-05-14T17:23:47.321Z,3.50
2018-05-14T17:26:15.614Z,3.60
2018-05-14T17:28:43.884Z,3.77
2018-05-14T17:31:12.169Z,4.60
2018-05-14T17:33:40.456Z,3.50
2018-05-14T17:36:08.713Z,3.80
2018-05-14T17:38:36.309Z,3.13
2018-05-14T17:41:03.830Z,3.60
2018-05-14T17:43:32.012Z,3.90
2018-05-14T17:45:59.868Z,4.10
2018-05-14T17:48:28.975Z,4.10
2018-05-14T17:50:57.253Z,3.77
2018-05-14T17:53:25.509Z,4.27
2018-05-14T17:55:53.151Z,4.30
2018-05-14T17:58:20.701Z,4.20
2018-05-14T18:00:49.085Z,3.73
2018-05-14T18:03:17.367Z,5.93
2018-05-14T18:05:45.661Z,3.70
2018-05-14T18:08:13.931Z,4.60
2018-05-14T18:10:41.483Z,3.87
2018-05-14T18:13:09.000Z,3.80
2018-05-14T18:15:40.270Z,4.67
2018-05-14T18:18:07.799Z,4.30
2018-05-14T18:20:38.261Z,4.83
2018-05-14T18:23:05.883Z,4.30
2018-05-14T18:25:39.091Z,5.03
2018-05-14T18:28:08.460Z,4.50
2018-05-14T18:30:39.509Z,4.13
2018-05-14T18:33:10.781Z,4.40
2018-05-14T18:35:44.910Z,4.83
2018-05-14T18:38:12.545Z,4.10
2018-05-14T18:40:40.063Z,4.27
2018-05-14T18:43:07.721Z,4.10
2018-05-14T18:45:35.987Z,4.80
2018-05-14T18:48:04.271Z,4.83
2018-05-14T18:50:31.826Z,4.33
2018-05-14T18:52:59.367Z,4.23
2018-05-14T18:55:26.921Z,5.10
2018-05-14T18:57:54.489Z,5.17
2018-05-14T19:00:22.213Z,5.10
2018-05-14T19:02:49.839Z,5.77
2018-05-14T19:05:17.363Z,4.93
2018-05-14T19:07:44.996Z,4.67
2018-05-14T19:10:18.239Z,4.93
2018-05-14T19:12:45.761Z,4.47
2018-05-14T19:15:19.098Z,5.20
2018-05-14T19:17:52.345Z,4.90
2018-05-14T19:20:20.088Z,5.53
2018-05-14T19:22:53.349Z,6.43
2018-05-14T19:25:21.008Z,5.20
2018-05-14T19:27:54.847Z,5.83
2018-05-14T19:30:22.642Z,4.70
2018-05-14T19:32:50.190Z,5.10
2018-05-14T19:35:24.301Z,5.57
2018-05-14T19:37:52.604Z,4.83
2018-05-14T19:40:26.504Z,6.10
2018-05-14T19:42:54.897Z,5.50
2018-05-14T19:45:23.210Z,4.87
2018-05-14T19:47:51.605Z,5.90
2018-05-14T19:50:19.181Z,5.77
2018-05-14T19:52:46.716Z,4.90
2018-05-14T19:55:15.147Z,5.63
2018-05-14T19:57:42.665Z,5.63
2018-05-14T20:00:10.396Z,5.40
2018-05-14T20:02:38.060Z,5.63
2018-05-14T20:05:05.689Z,5.40
2018-05-14T20:07:33.268Z,5.10
2018-05-14T20:10:00.932Z,4.77
2018-05-14T20:12:28.557Z,4.87
2018-05-14T20:14:56.224Z,5.13
2018-05-14T20:17:23.768Z,6.00
2018-05-14T20:19:51.838Z,4.60
2018-05-14T20:22:19.449Z,5.40
2018-05-14T20:24:47.057Z,6.97
2018-05-14T20:27:14.577Z,4.67
2018-05-14T20:29:42.899Z,5.30
2018-05-14T20:32:10.470Z,5.23
2018-05-14T20:34:38.008Z,4.33
2018-05-14T20:37:06.332Z,4.50
2018-05-14T20:39:33.821Z,4.77
2018-05-14T20:42:01.362Z,5.77
2018-05-14T20:44:28.855Z,5.30
2018-05-14T20:46:56.430Z,5.83
2018-05-14T20:49:23.977Z,5.93
2018-05-14T20:51:51.536Z,5.30
2018-05-14T20:54:19.149Z,6.00
2018-05-14T20:56:46.722Z,5.50
2018-05-14T20:59:14.293Z,4.90
2018-05-14T21:01:41.963Z,5.40
2018-05-14T21:04:09.445Z,5.60
2018-05-14T21:06:37.071Z,5.63
2018-05-14T21:09:06.276Z,5.60
2018-05-14T21:11:33.862Z,4.60
2018-05-14T21:14:01.573Z,4.73
2018-05-14T21:16:29.156Z,5.17
2018-05-14T21:18:56.701Z,5.23
2018-05-14T21:21:24.365Z,5.73
2018-05-14T21:23:51.893Z,5.10
2018-05-14T21:26:20.160Z,5.67
2018-05-14T21:28:47.719Z,6.10
2018-05-14T21:31:15.248Z,6.57
2018-05-14T21:33:43.712Z,5.73
2018-05-14T21:36:11.290Z,5.70
2018-05-14T21:38:39.582Z,5.10
2018-05-14T21:41:07.927Z,6.00
2018-05-14T21:43:35.420Z,7.17
2018-05-14T21:46:03.039Z,9.57
2018-05-14T21:48:30.582Z,12.70
2018-05-14T21:50:58.829Z,8.60
2018-05-14T21:53:26.584Z,9.70
2018-05-14T21:55:54.074Z,9.27
2018-05-14T21:58:21.717Z,8.00
2018-05-14T22:00:49.263Z,8.20
2018-05-14T22:03:17.567Z,7.80
2018-05-14T22:05:50.868Z,7.67
2018-05-14T22:08:18.405Z,7.87
2018-05-14T22:10:45.909Z,8.57
2018-05-14T22:13:14.203Z,7.50
2018-05-14T22:15:41.692Z,7.40
2018-05-14T22:18:09.221Z,6.73
2018-05-14T22:20:36.877Z,8.20
2018-05-14T22:23:04.468Z,5.40
2018-05-14T22:25:32.764Z,5.80
2018-05-14T22:28:00.333Z,6.20
2018-05-14T22:30:28.605Z,6.30
2018-05-14T22:32:56.127Z,7.50
2018-05-14T22:35:23.699Z,6.47
2018-05-14T22:37:51.234Z,7.40
2018-05-14T22:40:19.504Z,7.67
2018-05-14T22:42:47.018Z,7.30
2018-05-14T22:45:14.660Z,6.80
2018-05-14T22:47:42.394Z,6.50
2018-05-14T22:50:09.970Z,7.97
2018-05-14T22:52:37.502Z,6.73
2018-05-14T22:55:05.009Z,6.33
2018-05-14T22:57:32.525Z,7.20
2018-05-14T23:00:00.893Z,7.10
2018-05-14T23:02:28.485Z,7.13
2018-05-14T23:04:56.760Z,6.20
2018-05-14T23:07:25.038Z,6.47
2018-05-14T23:09:52.655Z,5.80
2018-05-14T23:12:20.223Z,6.00
2018-05-14T23:14:47.777Z,6.27
2018-05-14T23:17:16.124Z,7.43
2018-05-14T23:19:43.633Z,7.80
2018-05-14T23:22:17.944Z,6.13
2018-05-14T23:24:45.503Z,7.43
2018-05-14T23:27:12.976Z,7.63
2018-05-14T23:29:40.717Z,7.33
2018-05-14T23:32:08.237Z,6.60
2018-05-14T23:34:36.772Z,7.10
2018-05-14T23:37:04.310Z,6.80
2018-05-14T23:39:31.756Z,6.30
2018-05-14T23:41:59.280Z,6.87
2018-05-14T23:44:26.941Z,7.30
2018-05-14T23:46:55.283Z,6.43
2018-05-14T23:49:22.789Z,6.37
2018-05-14T23:51:51.108Z,6.93
2018-05-14T23:54:18.821Z,6.80
2018-05-14T23:56:46.324Z,6.90
2018-05-14T23:59:13.898Z,7.80
